sensor_id;sensor_type;location;lat;lon;timestamp;temperature;humidity
13600;DHT22;6871;51.34740610;4.31323160;2023-08-21T00:00:51;26.10;87.70
13600;DHT22;6871;51.34740610;4.31323160;2023-08-21T00:03:21;26.10;87.50
13600;DHT22;6871;51.34740610;4.31323160;2023-08-21T00:05:50;26.10;87.50
13600;DHT22;6871;51.34740610;4.31323160;2023-08-21T00:08:19;26.10;87.60
13600;DHT22;6871;51.34740610;4.31323160;2023-08-21T00:10:48;26.10;87.50
13600;DHT22;6871;51.34740610;4.31323160;2023-08-21T00:13:17;26.10;87.40
13600;DHT22;6871;51.34740610;4.31323160;2023-08-21T00:15:47;26.10;87.50
13600;DHT22;6871;51.34740610;4.31323160;2023-08-21T00:18:16;26.00;87.70
13600;DHT22;6871;51.34740610;4.31323160;2023-08-21T00:20:48;26.10;87.80
13600;DHT22;6871;51.34740610;4.31323160;2023-08-21T00:23:22;26.00;87.40
13600;DHT22;6871;51.34740610;4.31323160;2023-08-21T00:25:51;26.00;87.80
13600;DHT22;6871;51.34740610;4.31323160;2023-08-21T00:28:20;26.00;87.40
13600;DHT22;6871;51.34740610;4.31323160;2023-08-21T00:30:49;26.00;87.40
13600;DHT22;6871;51.34740610;4.31323160;2023-08-21T00:33:21;26.00;87.50
13600;DHT22;6871;51.34740610;4.31323160;2023-08-21T00:35:50;26.00;87.40
13600;DHT22;6871;51.34740610;4.31323160;2023-08-21T00:38:20;26.00;87.20
13600;DHT22;6871;51.34740610;4.31323160;2023-08-21T00:40:50;26.00;88.20
13600;DHT22;6871;51.34740610;4.31323160;2023-08-21T00:43:19;26.00;86.90
13600;DHT22;6871;51.34740610;4.31323160;2023-08-21T00:45:51;26.00;87.30
13600;DHT22;6871;51.34740610;4.31323160;2023-08-21T00:48:20;26.00;87.30
13600;DHT22;6871;51.34740610;4.31323160;2023-08-21T00:50:50;26.00;87.30
13600;DHT22;6871;51.34740610;4.31323160;2023-08-21T00:53:20;26.00;87.20
13600;DHT22;6871;51.34740610;4.31323160;2023-08-21T00:55:49;26.00;87.30
13600;DHT22;6871;51.34740610;4.31323160;2023-08-21T00:58:19;26.00;87.20
13600;DHT22;6871;51.34740610;4.31323160;2023-08-21T01:00:49;26.00;87.20
13600;DHT22;6871;51.34740610;4.31323160;2023-08-21T01:03:21;26.00;87.90
13600;DHT22;6871;51.34740610;4.31323160;2023-08-21T01:05:50;26.00;87.10
13600;DHT22;6871;51.34740610;4.31323160;2023-08-21T01:08:24;26.00;87.20
13600;DHT22;6871;51.34740610;4.31323160;2023-08-21T01:10:54;26.00;87.10
13600;DHT22;6871;51.34740610;4.31323160;2023-08-21T01:13:34;26.00;87.20
13600;DHT22;6871;51.34740610;4.31323160;2023-08-21T01:16:04;26.00;87.10
13600;DHT22;6871;51.34740610;4.31323160;2023-08-21T01:18:35;26.00;87.00
13600;DHT22;6871;51.34740610;4.31323160;2023-08-21T01:21:06;26.00;87.10
13600;DHT22;6871;51.34740610;4.31323160;2023-08-21T01:23:36;25.90;87.00
13600;DHT22;6871;51.34740610;4.31323160;2023-08-21T01:26:06;25.90;86.90
13600;DHT22;6871;51.34740610;4.31323160;2023-08-21T01:28:36;25.90;87.00
13600;DHT22;6871;51.34740610;4.31323160;2023-08-21T01:31:08;26.00;87.00
13600;DHT22;6871;51.34740610;4.31323160;2023-08-21T01:33:42;25.90;87.00
13600;DHT22;6871;51.34740610;4.31323160;2023-08-21T01:36:12;26.00;87.00
13600;DHT22;6871;51.34740610;4.31323160;2023-08-21T01:38:41;25.90;86.90
13600;DHT22;6871;51.34740610;4.31323160;2023-08-21T01:41:11;25.90;86.90
13600;DHT22;6871;51.34740610;4.31323160;2023-08-21T01:43:41;25.90;86.80
13600;DHT22;6871;51.34740610;4.31323160;2023-08-21T01:46:10;25.90;86.70
13600;DHT22;6871;51.34740610;4.31323160;2023-08-21T01:48:39;25.90;86.90
13600;DHT22;6871;51.34740610;4.31323160;2023-08-21T01:51:11;25.90;86.90
13600;DHT22;6871;51.34740610;4.31323160;2023-08-21T01:53:40;25.90;86.80
13600;DHT22;6871;51.34740610;4.31323160;2023-08-21T01:56:09;25.90;86.80
13600;DHT22;6871;51.34740610;4.31323160;2023-08-21T01:58:38;25.90;86.70
13600;DHT22;6871;51.34740610;4.31323160;2023-08-21T02:01:07;25.90;86.70
13600;DHT22;6871;51.34740610;4.31323160;2023-08-21T02:03:36;25.90;87.60
13600;DHT22;6871;51.34740610;4.31323160;2023-08-21T02:06:05;25.90;86.70
13600;DHT22;6871;51.34740610;4.31323160;2023-08-21T02:08:35;25.90;86.70
13600;DHT22;6871;51.34740610;4.31323160;2023-08-21T02:11:04;25.90;86.70
13600;DHT22;6871;51.34740610;4.31323160;2023-08-21T02:13:36;25.90;87.40
13600;DHT22;6871;51.34740610;4.31323160;2023-08-21T02:16:05;25.90;86.70
13600;DHT22;6871;51.34740610;4.31323160;2023-08-21T02:18:34;25.90;86.70
13600;DHT22;6871;51.34740610;4.31323160;2023-08-21T02:21:04;25.90;86.60
13600;DHT22;6871;51.34740610;4.31323160;2023-08-21T02:23:33;25.90;86.60
13600;DHT22;6871;51.34740610;4.31323160;2023-08-21T02:26:03;25.90;86.60
13600;DHT22;6871;51.34740610;4.31323160;2023-08-21T02:28:32;25.90;86.60
13600;DHT22;6871;51.34740610;4.31323160;2023-08-21T02:31:01;25.90;86.60
13600;DHT22;6871;51.34740610;4.31323160;2023-08-21T02:33:32;25.90;86.60
13600;DHT22;6871;51.34740610;4.31323160;2023-08-21T02:36:01;25.80;86.50
13600;DHT22;6871;51.34740610;4.31323160;2023-08-21T02:38:35;25.80;86.50
13600;DHT22;6871;51.34740610;4.31323160;2023-08-21T02:41:04;25.80;87.30
13600;DHT22;6871;51.34740610;4.31323160;2023-08-21T02:43:33;25.80;86.50
13600;DHT22;6871;51.34740610;4.31323160;2023-08-21T02:46:02;25.80;86.50
13600;DHT22;6871;51.34740610;4.31323160;2023-08-21T02:48:32;25.80;86.50
13600;DHT22;6871;51.34740610;4.31323160;2023-08-21T02:51:01;25.80;86.40
13600;DHT22;6871;51.34740610;4.31323160;2023-08-21T02:53:30;25.80;86.40
13600;DHT22;6871;51.34740610;4.31323160;2023-08-21T02:56:00;25.80;86.40
13600;DHT22;6871;51.34740610;4.31323160;2023-08-21T02:58:30;25.80;86.30
13600;DHT22;6871;51.34740610;4.31323160;2023-08-21T03:01:03;25.80;86.30
13600;DHT22;6871;51.34740610;4.31323160;2023-08-21T03:03:32;25.70;86.30
13600;DHT22;6871;51.34740610;4.31323160;2023-08-21T03:06:03;25.80;86.30
13600;DHT22;6871;51.34740610;4.31323160;2023-08-21T03:08:32;25.80;86.40
13600;DHT22;6871;51.34740610;4.31323160;2023-08-21T03:11:02;25.70;86.20
13600;DHT22;6871;51.34740610;4.31323160;2023-08-21T03:13:31;25.80;86.30
13600;DHT22;6871;51.34740610;4.31323160;2023-08-21T03:16:00;25.80;86.30
13600;DHT22;6871;51.34740610;4.31323160;2023-08-21T03:18:31;25.80;86.30
13600;DHT22;6871;51.34740610;4.31323160;2023-08-21T03:21:01;25.70;86.20
13600;DHT22;6871;51.34740610;4.31323160;2023-08-21T03:23:33;25.70;86.20
13600;DHT22;6871;51.34740610;4.31323160;2023-08-21T03:26:02;25.70;86.20
13600;DHT22;6871;51.34740610;4.31323160;2023-08-21T03:28:31;25.70;86.20
13600;DHT22;6871;51.34740610;4.31323160;2023-08-21T03:31:00;25.70;86.20
13600;DHT22;6871;51.34740610;4.31323160;2023-08-21T03:33:29;25.70;86.30
13600;DHT22;6871;51.34740610;4.31323160;2023-08-21T03:35:58;25.70;86.20
13600;DHT22;6871;51.34740610;4.31323160;2023-08-21T03:38:27;25.70;86.20
13600;DHT22;6871;51.34740610;4.31323160;2023-08-21T03:40:56;25.70;86.20
13600;DHT22;6871;51.34740610;4.31323160;2023-08-21T03:43:26;25.70;86.20
13600;DHT22;6871;51.34740610;4.31323160;2023-08-21T03:45:55;25.70;87.00
13600;DHT22;6871;51.34740610;4.31323160;2023-08-21T03:48:24;25.70;86.20
13600;DHT22;6871;51.34740610;4.31323160;2023-08-21T03:50:53;25.70;86.20
13600;DHT22;6871;51.34740610;4.31323160;2023-08-21T03:53:27;25.70;86.20
13600;DHT22;6871;51.34740610;4.31323160;2023-08-21T03:55:56;25.70;86.10
13600;DHT22;6871;51.34740610;4.31323160;2023-08-21T03:58:25;25.70;86.10
13600;DHT22;6871;51.34740610;4.31323160;2023-08-21T04:00:54;25.70;86.20
13600;DHT22;6871;51.34740610;4.31323160;2023-08-21T04:03:23;25.70;86.10
13600;DHT22;6871;51.34740610;4.31323160;2023-08-21T04:05:54;25.70;86.00
13600;DHT22;6871;51.34740610;4.31323160;2023-08-21T04:08:24;25.70;86.10
13600;DHT22;6871;51.34740610;4.31323160;2023-08-21T04:10:57;25.60;86.00
13600;DHT22;6871;51.34740610;4.31323160;2023-08-21T04:13:27;25.60;86.00
13600;DHT22;6871;51.34740610;4.31323160;2023-08-21T04:15:57;25.60;86.80
13600;DHT22;6871;51.34740610;4.31323160;2023-08-21T04:18:26;25.60;85.90
13600;DHT22;6871;51.34740610;4.31323160;2023-08-21T04:20:55;25.60;85.90
13600;DHT22;6871;51.34740610;4.31323160;2023-08-21T04:23:25;25.60;85.90
13600;DHT22;6871;51.34740610;4.31323160;2023-08-21T04:25:59;25.60;85.90
13600;DHT22;6871;51.34740610;4.31323160;2023-08-21T04:28:25;25.60;85.90
13600;DHT22;6871;51.34740610;4.31323160;2023-08-21T04:30:54;25.60;85.90
13600;DHT22;6871;51.34740610;4.31323160;2023-08-21T04:33:25;25.50;85.90
13600;DHT22;6871;51.34740610;4.31323160;2023-08-21T04:35:54;25.60;86.00
13600;DHT22;6871;51.34740610;4.31323160;2023-08-21T04:38:23;25.60;85.90
13600;DHT22;6871;51.34740610;4.31323160;2023-08-21T04:40:55;25.60;86.00
13600;DHT22;6871;51.34740610;4.31323160;2023-08-21T04:43:24;25.50;86.00
13600;DHT22;6871;51.34740610;4.31323160;2023-08-21T04:45:53;25.50;86.00
13600;DHT22;6871;51.34740610;4.31323160;2023-08-21T04:48:23;25.50;85.90
13600;DHT22;6871;51.34740610;4.31323160;2023-08-21T04:50:52;25.50;85.90
13600;DHT22;6871;51.34740610;4.31323160;2023-08-21T04:53:21;25.50;85.90
13600;DHT22;6871;51.34740610;4.31323160;2023-08-21T04:55:50;25.40;86.00
13600;DHT22;6871;51.34740610;4.31323160;2023-08-21T04:58:19;25.40;85.90
13600;DHT22;6871;51.34740610;4.31323160;2023-08-21T05:00:48;25.40;85.90
13600;DHT22;6871;51.34740610;4.31323160;2023-08-21T05:03:17;25.40;85.80
13600;DHT22;6871;51.34740610;4.31323160;2023-08-21T05:05:53;25.40;85.50
13600;DHT22;6871;51.34740610;4.31323160;2023-08-21T05:08:24;25.40;85.20
13600;DHT22;6871;51.34740610;4.31323160;2023-08-21T05:10:57;25.40;84.90
13600;DHT22;6871;51.34740610;4.31323160;2023-08-21T05:13:26;25.40;84.80
13600;DHT22;6871;51.34740610;4.31323160;2023-08-21T05:15:56;25.40;85.00
13600;DHT22;6871;51.34740610;4.31323160;2023-08-21T05:18:26;25.30;85.00
13600;DHT22;6871;51.34740610;4.31323160;2023-08-21T05:20:56;25.20;85.20
13600;DHT22;6871;51.34740610;4.31323160;2023-08-21T05:23:25;25.30;85.20
13600;DHT22;6871;51.34740610;4.31323160;2023-08-21T05:25:55;25.30;84.70
13600;DHT22;6871;51.34740610;4.31323160;2023-08-21T05:28:24;25.30;87.70
13600;DHT22;6871;51.34740610;4.31323160;2023-08-21T05:30:53;25.30;88.00
13600;DHT22;6871;51.34740610;4.31323160;2023-08-21T05:33:22;25.20;88.20
13600;DHT22;6871;51.34740610;4.31323160;2023-08-21T05:35:51;25.30;88.70
13600;DHT22;6871;51.34740610;4.31323160;2023-08-21T05:38:21;25.20;88.50
13600;DHT22;6871;51.34740610;4.31323160;2023-08-21T05:40:50;25.30;89.20
13600;DHT22;6871;51.34740610;4.31323160;2023-08-21T05:43:20;25.30;88.90
13600;DHT22;6871;51.34740610;4.31323160;2023-08-21T05:45:49;25.30;87.70
13600;DHT22;6871;51.34740610;4.31323160;2023-08-21T05:48:18;25.20;88.30
13600;DHT22;6871;51.34740610;4.31323160;2023-08-21T05:50:51;25.30;89.20
13600;DHT22;6871;51.34740610;4.31323160;2023-08-21T05:53:20;25.20;89.20
13600;DHT22;6871;51.34740610;4.31323160;2023-08-21T05:55:49;25.30;89.20
13600;DHT22;6871;51.34740610;4.31323160;2023-08-21T05:58:18;25.30;88.10
13600;DHT22;6871;51.34740610;4.31323160;2023-08-21T06:00:48;25.30;87.70
13600;DHT22;6871;51.34740610;4.31323160;2023-08-21T06:03:17;25.20;86.90
13600;DHT22;6871;51.34740610;4.31323160;2023-08-21T06:05:46;25.30;86.70
13600;DHT22;6871;51.34740610;4.31323160;2023-08-21T06:08:16;25.30;86.40
13600;DHT22;6871;51.34740610;4.31323160;2023-08-21T06:10:46;25.20;86.30
13600;DHT22;6871;51.34740610;4.31323160;2023-08-21T06:13:16;25.20;86.30
13600;DHT22;6871;51.34740610;4.31323160;2023-08-21T06:15:46;25.30;86.20
13600;DHT22;6871;51.34740610;4.31323160;2023-08-21T06:18:15;25.20;86.60
13600;DHT22;6871;51.34740610;4.31323160;2023-08-21T06:20:45;25.20;86.10
13600;DHT22;6871;51.34740610;4.31323160;2023-08-21T06:23:15;25.20;85.80
13600;DHT22;6871;51.34740610;4.31323160;2023-08-21T06:25:44;25.20;85.80
13600;DHT22;6871;51.34740610;4.31323160;2023-08-21T06:28:16;25.20;85.90
13600;DHT22;6871;51.34740610;4.31323160;2023-08-21T06:30:45;25.30;85.90
13600;DHT22;6871;51.34740610;4.31323160;2023-08-21T06:33:14;25.20;85.80
13600;DHT22;6871;51.34740610;4.31323160;2023-08-21T06:35:43;25.20;85.80
13600;DHT22;6871;51.34740610;4.31323160;2023-08-21T06:38:12;25.20;85.80
13600;DHT22;6871;51.34740610;4.31323160;2023-08-21T06:40:42;25.20;85.90
13600;DHT22;6871;51.34740610;4.31323160;2023-08-21T06:43:11;25.10;86.00
13600;DHT22;6871;51.34740610;4.31323160;2023-08-21T06:45:41;25.00;84.00
13600;DHT22;6871;51.34740610;4.31323160;2023-08-21T06:48:10;24.40;86.00
13600;DHT22;6871;51.34740610;4.31323160;2023-08-21T06:50:39;24.00;87.50
13600;DHT22;6871;51.34740610;4.31323160;2023-08-21T06:53:08;23.90;87.80
13600;DHT22;6871;51.34740610;4.31323160;2023-08-21T06:55:37;23.50;89.00
13600;DHT22;6871;51.34740610;4.31323160;2023-08-21T06:58:06;23.10;90.50
13600;DHT22;6871;51.34740610;4.31323160;2023-08-21T07:00:36;22.90;91.10
13600;DHT22;6871;51.34740610;4.31323160;2023-08-21T07:03:05;22.70;91.60
13600;DHT22;6871;51.34740610;4.31323160;2023-08-21T07:05:36;22.50;92.00
13600;DHT22;6871;51.34740610;4.31323160;2023-08-21T07:08:06;22.70;91.80
13600;DHT22;6871;51.34740610;4.31323160;2023-08-21T07:10:38;23.10;91.50
13600;DHT22;6871;51.34740610;4.31323160;2023-08-21T07:13:07;23.30;91.00
13600;DHT22;6871;51.34740610;4.31323160;2023-08-21T07:15:36;23.60;90.60
13600;DHT22;6871;51.34740610;4.31323160;2023-08-21T07:18:06;23.90;90.20
13600;DHT22;6871;51.34740610;4.31323160;2023-08-21T07:20:37;24.10;89.90
13600;DHT22;6871;51.34740610;4.31323160;2023-08-21T07:23:07;24.20;90.00
13600;DHT22;6871;51.34740610;4.31323160;2023-08-21T07:25:36;24.30;89.20
13600;DHT22;6871;51.34740610;4.31323160;2023-08-21T07:28:06;24.40;88.70
13600;DHT22;6871;51.34740610;4.31323160;2023-08-21T07:30:39;24.50;88.20
13600;DHT22;6871;51.34740610;4.31323160;2023-08-21T07:33:08;24.60;87.80
13600;DHT22;6871;51.34740610;4.31323160;2023-08-21T07:35:38;24.70;87.60
13600;DHT22;6871;51.34740610;4.31323160;2023-08-21T07:38:07;24.80;87.30
13600;DHT22;6871;51.34740610;4.31323160;2023-08-21T07:40:36;24.90;87.10
13600;DHT22;6871;51.34740610;4.31323160;2023-08-21T07:43:08;24.90;86.80
13600;DHT22;6871;51.34740610;4.31323160;2023-08-21T07:45:38;24.90;86.60
13600;DHT22;6871;51.34740610;4.31323160;2023-08-21T07:48:08;25.00;86.40
13600;DHT22;6871;51.34740610;4.31323160;2023-08-21T07:50:37;25.00;86.20
13600;DHT22;6871;51.34740610;4.31323160;2023-08-21T07:53:06;25.00;86.10
13600;DHT22;6871;51.34740610;4.31323160;2023-08-21T07:55:35;25.10;86.00
13600;DHT22;6871;51.34740610;4.31323160;2023-08-21T07:58:04;25.10;86.00
13600;DHT22;6871;51.34740610;4.31323160;2023-08-21T08:00:33;25.10;85.70
13600;DHT22;6871;51.34740610;4.31323160;2023-08-21T08:03:03;25.20;85.80
13600;DHT22;6871;51.34740610;4.31323160;2023-08-21T08:05:32;25.20;86.60
13600;DHT22;6871;51.34740610;4.31323160;2023-08-21T08:08:02;25.20;85.40
13600;DHT22;6871;51.34740610;4.31323160;2023-08-21T08:10:31;25.30;85.40
13600;DHT22;6871;51.34740610;4.31323160;2023-08-21T08:13:00;25.30;85.20
13600;DHT22;6871;51.34740610;4.31323160;2023-08-21T08:15:34;25.30;85.20
13600;DHT22;6871;51.34740610;4.31323160;2023-08-21T08:18:04;25.40;85.30
13600;DHT22;6871;51.34740610;4.31323160;2023-08-21T08:20:35;25.40;85.20
13600;DHT22;6871;51.34740610;4.31323160;2023-08-21T08:23:05;25.40;85.10
13600;DHT22;6871;51.34740610;4.31323160;2023-08-21T08:25:34;25.40;85.10
13600;DHT22;6871;51.34740610;4.31323160;2023-08-21T08:28:03;25.40;85.20
13600;DHT22;6871;51.34740610;4.31323160;2023-08-21T08:30:33;25.50;85.20
13600;DHT22;6871;51.34740610;4.31323160;2023-08-21T08:33:03;25.50;85.10
13600;DHT22;6871;51.34740610;4.31323160;2023-08-21T08:35:32;25.50;85.00
13600;DHT22;6871;51.34740610;4.31323160;2023-08-21T08:38:01;25.50;85.00
13600;DHT22;6871;51.34740610;4.31323160;2023-08-21T08:40:30;25.60;85.10
13600;DHT22;6871;51.34740610;4.31323160;2023-08-21T08:42:59;25.60;85.10
13600;DHT22;6871;51.34740610;4.31323160;2023-08-21T08:45:30;25.60;85.10
13600;DHT22;6871;51.34740610;4.31323160;2023-08-21T08:48:00;25.60;85.20
13600;DHT22;6871;51.34740610;4.31323160;2023-08-21T08:50:31;25.60;85.20
13600;DHT22;6871;51.34740610;4.31323160;2023-08-21T08:53:01;25.60;85.30
13600;DHT22;6871;51.34740610;4.31323160;2023-08-21T08:55:32;25.60;85.30
13600;DHT22;6871;51.34740610;4.31323160;2023-08-21T08:58:02;25.60;85.50
13600;DHT22;6871;51.34740610;4.31323160;2023-08-21T09:00:30;25.60;85.50
13600;DHT22;6871;51.34740610;4.31323160;2023-08-21T09:03:00;25.60;85.50
13600;DHT22;6871;51.34740610;4.31323160;2023-08-21T09:05:30;25.70;85.60
13600;DHT22;6871;51.34740610;4.31323160;2023-08-21T09:08:08;25.70;85.50
13600;DHT22;6871;51.34740610;4.31323160;2023-08-21T09:10:35;25.70;85.50
13600;DHT22;6871;51.34740610;4.31323160;2023-08-21T09:13:12;25.70;85.50
13600;DHT22;6871;51.34740610;4.31323160;2023-08-21T09:15:43;25.70;85.50
13600;DHT22;6871;51.34740610;4.31323160;2023-08-21T09:18:12;25.70;85.50
13600;DHT22;6871;51.34740610;4.31323160;2023-08-21T09:20:42;25.80;85.60
13600;DHT22;6871;51.34740610;4.31323160;2023-08-21T09:23:15;25.80;85.60
13600;DHT22;6871;51.34740610;4.31323160;2023-08-21T09:25:46;25.80;85.50
13600;DHT22;6871;51.34740610;4.31323160;2023-08-21T09:28:18;25.90;85.60
13600;DHT22;6871;51.34740610;4.31323160;2023-08-21T09:30:50;25.90;85.60
13600;DHT22;6871;51.34740610;4.31323160;2023-08-21T09:33:19;25.90;85.70
13600;DHT22;6871;51.34740610;4.31323160;2023-08-21T09:35:51;25.90;85.60
13600;DHT22;6871;51.34740610;4.31323160;2023-08-21T09:38:20;26.00;85.60
13600;DHT22;6871;51.34740610;4.31323160;2023-08-21T09:40:54;26.00;85.60
13600;DHT22;6871;51.34740610;4.31323160;2023-08-21T09:43:24;26.00;85.50
13600;DHT22;6871;51.34740610;4.31323160;2023-08-21T09:45:54;26.00;85.60
13600;DHT22;6871;51.34740610;4.31323160;2023-08-21T09:48:25;26.00;85.60
13600;DHT22;6871;51.34740610;4.31323160;2023-08-21T09:50:55;26.00;85.70
13600;DHT22;6871;51.34740610;4.31323160;2023-08-21T09:53:24;26.00;85.70
13600;DHT22;6871;51.34740610;4.31323160;2023-08-21T09:55:54;26.10;85.90
13600;DHT22;6871;51.34740610;4.31323160;2023-08-21T09:58:24;26.10;85.80
13600;DHT22;6871;51.34740610;4.31323160;2023-08-21T10:00:56;26.10;85.70
13600;DHT22;6871;51.34740610;4.31323160;2023-08-21T10:03:24;26.10;85.70
13600;DHT22;6871;51.34740610;4.31323160;2023-08-21T10:05:55;26.20;85.80
13600;DHT22;6871;51.34740610;4.31323160;2023-08-21T10:08:26;26.20;85.80
13600;DHT22;6871;51.34740610;4.31323160;2023-08-21T10:10:56;26.20;85.80
13600;DHT22;6871;51.34740610;4.31323160;2023-08-21T10:13:25;26.20;85.80
13600;DHT22;6871;51.34740610;4.31323160;2023-08-21T10:15:54;26.30;85.80
13600;DHT22;6871;51.34740610;4.31323160;2023-08-21T10:18:30;26.30;85.80
13600;DHT22;6871;51.34740610;4.31323160;2023-08-21T10:21:12;26.30;85.70
13600;DHT22;6871;51.34740610;4.31323160;2023-08-21T10:23:42;26.30;85.70
13600;DHT22;6871;51.34740610;4.31323160;2023-08-21T10:26:11;26.30;85.70
13600;DHT22;6871;51.34740610;4.31323160;2023-08-21T10:28:48;26.40;85.70
13600;DHT22;6871;51.34740610;4.31323160;2023-08-21T10:31:28;26.40;86.60
13600;DHT22;6871;51.34740610;4.31323160;2023-08-21T10:33:58;26.40;85.80
13600;DHT22;6871;51.34740610;4.31323160;2023-08-21T10:37:08;26.40;85.70
13600;DHT22;6871;51.34740610;4.31323160;2023-08-21T10:39:53;26.40;85.60
13600;DHT22;6871;51.34740610;4.31323160;2023-08-21T10:42:37;26.40;85.70
13600;DHT22;6871;51.34740610;4.31323160;2023-08-21T10:45:12;26.40;85.80
13600;DHT22;6871;51.34740610;4.31323160;2023-08-21T10:47:41;26.40;85.80
13600;DHT22;6871;51.34740610;4.31323160;2023-08-21T10:50:13;26.40;85.70
13600;DHT22;6871;51.34740610;4.31323160;2023-08-21T10:52:44;26.40;85.70
13600;DHT22;6871;51.34740610;4.31323160;2023-08-21T10:55:14;26.50;85.90
13600;DHT22;6871;51.34740610;4.31323160;2023-08-21T10:57:47;26.50;85.90
13600;DHT22;6871;51.34740610;4.31323160;2023-08-21T11:00:18;26.50;86.00
13600;DHT22;6871;51.34740610;4.31323160;2023-08-21T11:02:50;26.50;85.90
13600;DHT22;6871;51.34740610;4.31323160;2023-08-21T11:05:22;26.50;85.80
13600;DHT22;6871;51.34740610;4.31323160;2023-08-21T11:07:51;26.50;85.70
13600;DHT22;6871;51.34740610;4.31323160;2023-08-21T11:10:22;26.60;85.60
13600;DHT22;6871;51.34740610;4.31323160;2023-08-21T11:12:52;26.60;85.70
13600;DHT22;6871;51.34740610;4.31323160;2023-08-21T11:15:24;26.60;85.70
13600;DHT22;6871;51.34740610;4.31323160;2023-08-21T11:17:55;26.60;85.70
13600;DHT22;6871;51.34740610;4.31323160;2023-08-21T11:20:29;26.60;85.70
13600;DHT22;6871;51.34740610;4.31323160;2023-08-21T11:22:58;26.60;85.60
13600;DHT22;6871;51.34740610;4.31323160;2023-08-21T11:25:30;26.70;85.70
13600;DHT22;6871;51.34740610;4.31323160;2023-08-21T11:27:59;26.70;85.70
13600;DHT22;6871;51.34740610;4.31323160;2023-08-21T11:30:31;26.70;85.70
13600;DHT22;6871;51.34740610;4.31323160;2023-08-21T11:33:07;26.70;85.70
13600;DHT22;6871;51.34740610;4.31323160;2023-08-21T11:35:37;26.70;85.70
13600;DHT22;6871;51.34740610;4.31323160;2023-08-21T11:38:12;26.70;85.60
13600;DHT22;6871;51.34740610;4.31323160;2023-08-21T11:40:37;26.70;85.60
13600;DHT22;6871;51.34740610;4.31323160;2023-08-21T11:43:07;26.80;85.70
13600;DHT22;6871;51.34740610;4.31323160;2023-08-21T11:45:37;26.80;85.70
13600;DHT22;6871;51.34740610;4.31323160;2023-08-21T11:48:07;26.80;85.70
13600;DHT22;6871;51.34740610;4.31323160;2023-08-21T11:50:36;26.80;85.70
13600;DHT22;6871;51.34740610;4.31323160;2023-08-21T11:53:06;26.80;85.50
13600;DHT22;6871;51.34740610;4.31323160;2023-08-21T11:55:36;26.80;85.60
13600;DHT22;6871;51.34740610;4.31323160;2023-08-21T11:58:06;26.90;85.60
13600;DHT22;6871;51.34740610;4.31323160;2023-08-21T12:00:35;26.90;85.80
13600;DHT22;6871;51.34740610;4.31323160;2023-08-21T12:03:04;26.90;85.70
13600;DHT22;6871;51.34740610;4.31323160;2023-08-21T12:05:35;26.90;85.70
13600;DHT22;6871;51.34740610;4.31323160;2023-08-21T12:08:06;26.90;85.60
13600;DHT22;6871;51.34740610;4.31323160;2023-08-21T12:10:36;26.90;85.70
13600;DHT22;6871;51.34740610;4.31323160;2023-08-21T12:13:05;26.90;85.50
13600;DHT22;6871;51.34740610;4.31323160;2023-08-21T12:15:35;26.90;85.60
13600;DHT22;6871;51.34740610;4.31323160;2023-08-21T12:18:04;26.90;85.70
13600;DHT22;6871;51.34740610;4.31323160;2023-08-21T12:20:33;26.90;85.80
13600;DHT22;6871;51.34740610;4.31323160;2023-08-21T12:23:03;26.90;86.30
13600;DHT22;6871;51.34740610;4.31323160;2023-08-21T12:25:32;26.90;85.70
13600;DHT22;6871;51.34740610;4.31323160;2023-08-21T12:28:01;26.90;85.70
13600;DHT22;6871;51.34740610;4.31323160;2023-08-21T12:30:31;26.90;85.90
13600;DHT22;6871;51.34740610;4.31323160;2023-08-21T12:33:00;26.90;86.00
13600;DHT22;6871;51.34740610;4.31323160;2023-08-21T12:35:29;26.90;86.10
13600;DHT22;6871;51.34740610;4.31323160;2023-08-21T12:37:59;26.90;86.20
13600;DHT22;6871;51.34740610;4.31323160;2023-08-21T12:40:29;26.90;86.20
13600;DHT22;6871;51.34740610;4.31323160;2023-08-21T12:42:58;26.90;86.20
13600;DHT22;6871;51.34740610;4.31323160;2023-08-21T12:45:28;26.90;86.30
13600;DHT22;6871;51.34740610;4.31323160;2023-08-21T12:47:57;26.90;86.30
13600;DHT22;6871;51.34740610;4.31323160;2023-08-21T12:50:26;26.90;86.30
13600;DHT22;6871;51.34740610;4.31323160;2023-08-21T12:52:55;26.90;87.10
13600;DHT22;6871;51.34740610;4.31323160;2023-08-21T12:55:24;26.90;86.30
13600;DHT22;6871;51.34740610;4.31323160;2023-08-21T12:57:53;26.90;87.00
13600;DHT22;6871;51.34740610;4.31323160;2023-08-21T13:00:22;26.90;86.40
13600;DHT22;6871;51.34740610;4.31323160;2023-08-21T13:02:52;26.90;86.50
13600;DHT22;6871;51.34740610;4.31323160;2023-08-21T13:05:21;26.90;86.40
13600;DHT22;6871;51.34740610;4.31323160;2023-08-21T13:07:51;26.90;86.40
13600;DHT22;6871;51.34740610;4.31323160;2023-08-21T13:10:20;26.90;86.50
13600;DHT22;6871;51.34740610;4.31323160;2023-08-21T13:12:49;26.90;86.40
13600;DHT22;6871;51.34740610;4.31323160;2023-08-21T13:15:19;26.80;86.40
13600;DHT22;6871;51.34740610;4.31323160;2023-08-21T13:17:48;26.80;86.40
13600;DHT22;6871;51.34740610;4.31323160;2023-08-21T13:20:17;26.80;86.40
13600;DHT22;6871;51.34740610;4.31323160;2023-08-21T13:22:47;26.80;86.90
13600;DHT22;6871;51.34740610;4.31323160;2023-08-21T13:25:17;26.80;86.60
13600;DHT22;6871;51.34740610;4.31323160;2023-08-21T13:27:47;26.80;86.40
13600;DHT22;6871;51.34740610;4.31323160;2023-08-21T13:30:16;26.80;86.70
13600;DHT22;6871;51.34740610;4.31323160;2023-08-21T13:32:46;26.80;86.40
13600;DHT22;6871;51.34740610;4.31323160;2023-08-21T13:35:15;26.80;87.30
13600;DHT22;6871;51.34740610;4.31323160;2023-08-21T13:37:45;26.80;86.40
13600;DHT22;6871;51.34740610;4.31323160;2023-08-21T13:40:18;26.80;86.40
13600;DHT22;6871;51.34740610;4.31323160;2023-08-21T13:42:48;26.80;86.40
13600;DHT22;6871;51.34740610;4.31323160;2023-08-21T13:45:19;26.80;87.30
13600;DHT22;6871;51.34740610;4.31323160;2023-08-21T13:47:49;26.80;86.40
13600;DHT22;6871;51.34740610;4.31323160;2023-08-21T13:50:19;26.70;86.30